createdAt,value
2018-05-03T00:00:51.785Z,44.26
2018-05-03T00:01:52.259Z,44.26
2018-05-03T00:02:52.735Z,44.30
2018-05-03T00:03:53.209Z,44.35
2018-05-03T00:04:53.682Z,44.47
2018-05-03T00:05:54.158Z,44.62
2018-05-03T00:06:54.629Z,44.79
2018-05-03T00:07:55.112Z,44.97
2018-05-03T00:08:55.580Z,45.19
2018-05-03T00:09:56.050Z,45.41
2018-05-03T00:10:56.528Z,45.64
2018-05-03T00:11:56.998Z,45.86
2018-05-03T00:12:57.471Z,46.11
2018-05-03T00:13:57.943Z,46.37
2018-05-03T00:14:58.416Z,46.62
2018-05-03T00:15:58.888Z,46.90
2018-05-03T00:16:59.361Z,47.18
2018-05-03T00:17:59.834Z,47.45
2018-05-03T00:19:00.307Z,47.73
2018-05-03T00:20:00.777Z,48.03
2018-05-03T00:21:01.249Z,48.34
2018-05-03T00:22:01.720Z,48.66
2018-05-03T00:23:02.190Z,48.94
2018-05-03T00:24:02.663Z,49.19
2018-05-03T00:25:03.135Z,49.38
2018-05-03T00:26:03.603Z,49.60
2018-05-03T00:27:04.072Z,49.77
2018-05-03T00:28:04.544Z,49.85
2018-05-03T00:29:05.015Z,49.92
2018-05-03T00:30:05.483Z,49.92
2018-05-03T00:31:05.954Z,49.89
2018-05-03T00:32:06.424Z,49.82
2018-05-03T00:33:06.896Z,49.68
2018-05-03T00:34:07.363Z,49.57
2018-05-03T00:35:07.835Z,49.50
2018-05-03T00:36:08.304Z,49.41
2018-05-03T00:37:08.776Z,49.30
2018-05-03T00:38:09.244Z,49.17
2018-05-03T00:39:09.720Z,49.06
2018-05-03T00:40:10.186Z,48.96
2018-05-03T00:41:10.656Z,48.82
2018-05-03T00:42:11.125Z,48.72
2018-05-03T00:43:11.596Z,48.59
2018-05-03T00:44:12.066Z,48.49
2018-05-03T00:45:12.535Z,48.39
2018-05-03T00:46:13.006Z,48.26
2018-05-03T00:47:13.514Z,48.15
2018-05-03T00:48:13.951Z,48.02
2018-05-03T00:49:14.417Z,47.93
2018-05-03T00:50:14.886Z,47.84
2018-05-03T00:51:15.359Z,47.76
2018-05-03T00:52:15.832Z,47.66
2018-05-03T00:53:16.300Z,47.56
2018-05-03T00:54:16.777Z,47.43
2018-05-03T00:55:17.245Z,47.27
2018-05-03T00:56:17.715Z,47.11
2018-05-03T00:57:18.185Z,47.02
2018-05-03T00:58:18.656Z,46.91
2018-05-03T00:59:19.127Z,46.79
2018-05-03T01:00:19.599Z,46.64
2018-05-03T01:01:20.070Z,46.53
2018-05-03T01:02:20.541Z,46.43
2018-05-03T01:03:21.015Z,46.33
2018-05-03T01:04:21.487Z,46.25
2018-05-03T01:05:21.960Z,46.16
2018-05-03T01:06:22.429Z,46.10
2018-05-03T01:07:22.902Z,46.03
2018-05-03T01:08:23.376Z,45.96
2018-05-03T01:09:23.848Z,45.92
2018-05-03T01:10:24.316Z,45.93
2018-05-03T01:11:24.792Z,45.87
2018-05-03T01:12:25.263Z,45.83
2018-05-03T01:13:25.737Z,45.79
2018-05-03T01:14:26.206Z,45.71
2018-05-03T01:15:26.682Z,45.65
2018-05-03T01:16:27.156Z,45.61
2018-05-03T01:17:27.626Z,45.55
2018-05-03T01:18:28.098Z,45.55
2018-05-03T01:19:28.622Z,45.51
2018-05-03T01:20:29.043Z,45.45
2018-05-03T01:21:29.516Z,45.40
2018-05-03T01:22:29.992Z,45.34
2018-05-03T01:23:30.466Z,45.31
2018-05-03T01:24:30.936Z,45.25
2018-05-03T01:25:31.410Z,45.18
2018-05-03T01:26:31.880Z,45.14
2018-05-03T01:27:32.354Z,45.08
2018-05-03T01:28:32.827Z,45.04
2018-05-03T01:29:33.352Z,45.03
2018-05-03T01:30:33.779Z,44.98
2018-05-03T01:31:34.248Z,45.02
2018-05-03T01:32:34.723Z,45.01
2018-05-03T01:33:35.196Z,44.98
2018-05-03T01:34:35.667Z,44.96
2018-05-03T01:35:36.142Z,44.94
2018-05-03T01:36:36.616Z,44.89
2018-05-03T01:37:37.089Z,44.90
2018-05-03T01:38:37.562Z,44.92
2018-05-03T01:39:38.042Z,44.91
2018-05-03T01:40:38.510Z,44.93
2018-05-03T01:41:38.985Z,44.93
2018-05-03T01:42:39.457Z,44.91
2018-05-03T01:43:39.931Z,44.89
2018-05-03T01:44:40.454Z,44.86
2018-05-03T01:45:40.882Z,44.80
2018-05-03T01:46:41.352Z,44.81
2018-05-03T01:47:41.825Z,44.83
2018-05-03T01:48:42.305Z,44.80
2018-05-03T01:49:42.775Z,44.77
2018-05-03T01:50:43.247Z,44.78
2018-05-03T01:51:43.725Z,44.76
2018-05-03T01:52:44.198Z,44.68
2018-05-03T01:53:44.671Z,44.66
2018-05-03T01:54:45.144Z,44.67
2018-05-03T01:55:45.622Z,44.65
2018-05-03T01:56:46.093Z,44.71
2018-05-03T01:57:46.567Z,44.82
2018-05-03T01:58:47.043Z,44.94
2018-05-03T01:59:47.521Z,45.10
2018-05-03T02:01:48.462Z,45.49
2018-05-03T02:02:49.136Z,45.72
2018-05-03T02:03:49.409Z,45.97
2018-05-03T02:04:49.881Z,46.22
2018-05-03T02:05:50.354Z,46.51
2018-05-03T02:06:50.827Z,46.84
2018-05-03T02:07:51.301Z,47.16
2018-05-03T02:08:51.771Z,47.46
2018-05-03T02:09:52.296Z,47.74
2018-05-03T02:10:52.713Z,48.05
2018-05-03T02:12:53.660Z,48.73
2018-05-03T02:13:54.136Z,49.06
2018-05-03T02:14:54.599Z,49.34
2018-05-03T02:15:55.070Z,49.63
2018-05-03T02:16:55.540Z,49.90
2018-05-03T02:17:56.010Z,50.10
2018-05-03T02:18:56.481Z,50.23
2018-05-03T02:19:56.950Z,50.37
2018-05-03T02:20:57.420Z,50.48
2018-05-03T02:21:57.891Z,50.52
2018-05-03T02:22:58.361Z,50.49
2018-05-03T02:23:58.832Z,50.42
2018-05-03T02:24:59.350Z,50.39
2018-05-03T02:25:59.810Z,50.35
2018-05-03T02:27:00.240Z,50.29
2018-05-03T02:28:00.710Z,50.19
2018-05-03T02:29:01.179Z,50.09
2018-05-03T02:30:01.700Z,49.94
2018-05-03T02:31:02.121Z,49.78
2018-05-03T02:32:02.588Z,49.59
2018-05-03T02:33:03.061Z,49.43
2018-05-03T02:34:03.530Z,49.26
2018-05-03T02:35:03.998Z,49.12
2018-05-03T02:36:04.469Z,48.95
2018-05-03T02:37:04.942Z,48.81
2018-05-03T02:38:05.409Z,48.65
2018-05-03T02:39:05.879Z,48.48
2018-05-03T02:40:06.400Z,48.35
2018-05-03T02:41:06.820Z,48.26
2018-05-03T02:42:07.294Z,48.12
2018-05-03T02:43:07.761Z,47.98
2018-05-03T02:44:08.571Z,47.95
2018-05-03T02:45:08.701Z,47.85
2018-05-03T02:46:09.173Z,47.74
2018-05-03T02:47:09.643Z,47.68
2018-05-03T02:48:10.153Z,47.57
2018-05-03T02:49:10.585Z,47.44
2018-05-03T02:50:11.061Z,47.30
2018-05-03T02:51:11.526Z,47.21
2018-05-03T02:52:12.003Z,47.13
2018-05-03T02:53:12.469Z,47.08
2018-05-03T02:54:12.940Z,47.04
2018-05-03T02:55:13.457Z,46.96
2018-05-03T02:56:13.882Z,46.91
2018-05-03T02:57:14.355Z,46.87
2018-05-03T02:58:14.826Z,46.84
2018-05-03T02:59:15.297Z,46.80
2018-05-03T03:00:16.111Z,46.77
2018-05-03T03:01:16.241Z,46.71
2018-05-03T03:02:16.727Z,46.66
2018-05-03T03:03:17.184Z,46.60
2018-05-03T03:04:17.659Z,46.49
2018-05-03T03:05:18.130Z,46.45
2018-05-03T03:06:18.604Z,46.39
2018-05-03T03:07:19.072Z,46.38
2018-05-03T03:08:19.545Z,46.31
2018-05-03T03:09:20.021Z,46.27
2018-05-03T03:10:20.492Z,46.24
2018-05-03T03:11:20.961Z,46.21
2018-05-03T03:12:21.435Z,46.20
2018-05-03T03:13:21.948Z,46.15
2018-05-03T03:14:22.721Z,46.09
2018-05-03T03:15:22.903Z,46.03
2018-05-03T03:16:23.326Z,46.00
2018-05-03T03:17:23.799Z,45.93
2018-05-03T03:18:24.271Z,45.91
2018-05-03T03:19:24.747Z,45.88
2018-05-03T03:20:25.216Z,45.85
2018-05-03T03:21:25.689Z,45.81
2018-05-03T03:22:26.507Z,45.73
2018-05-03T03:23:26.635Z,45.67
2018-05-03T03:24:27.109Z,45.58
2018-05-03T03:25:27.620Z,45.58
2018-05-03T03:26:28.054Z,45.55
2018-05-03T03:27:28.527Z,45.50
2018-05-03T03:28:29.000Z,45.44
2018-05-03T03:29:29.475Z,45.41
2018-05-03T03:30:30.002Z,45.39
2018-05-03T03:31:30.420Z,45.32
2018-05-03T03:32:30.896Z,45.28
2018-05-03T03:33:31.370Z,45.21
2018-05-03T03:34:31.840Z,45.20
2018-05-03T03:35:32.363Z,45.19
2018-05-03T03:36:32.785Z,45.20
2018-05-03T03:37:33.259Z,45.18
2018-05-03T03:38:33.733Z,45.17
2018-05-03T03:39:34.205Z,45.20
2018-05-03T03:40:34.679Z,45.19
2018-05-03T03:41:35.494Z,45.15
2018-05-03T03:42:35.969Z,45.13
2018-05-03T03:43:36.101Z,45.11
2018-05-03T03:44:36.777Z,45.06
2018-05-03T03:45:37.048Z,45.00
2018-05-03T03:46:37.521Z,44.97
2018-05-03T03:47:37.996Z,44.93
2018-05-03T03:48:38.470Z,44.91
2018-05-03T03:49:38.941Z,44.88
2018-05-03T03:50:39.465Z,44.85
2018-05-03T03:51:39.889Z,44.81
2018-05-03T03:52:40.400Z,44.78
2018-05-03T03:53:41.177Z,44.76
2018-05-03T03:54:41.309Z,44.73
2018-05-03T03:55:41.788Z,44.75
2018-05-03T03:56:42.257Z,44.75
2018-05-03T03:57:43.072Z,44.75
2018-05-03T03:58:43.205Z,44.66
2018-05-03T03:59:43.678Z,44.65
2018-05-03T04:00:44.207Z,44.63
2018-05-03T04:01:44.627Z,44.61
2018-05-03T04:02:45.101Z,44.58
2018-05-03T04:03:45.574Z,44.58
2018-05-03T04:04:46.052Z,44.64
2018-05-03T04:05:46.525Z,44.66
2018-05-03T04:06:46.996Z,44.73
2018-05-03T04:07:47.472Z,44.87
2018-05-03T04:08:47.942Z,45.00
2018-05-03T04:09:48.418Z,45.18
2018-05-03T04:10:48.945Z,45.38
2018-05-03T04:11:49.363Z,45.62
2018-05-03T04:12:49.838Z,45.86
2018-05-03T04:13:50.310Z,46.12
2018-05-03T04:14:50.790Z,46.42
2018-05-03T04:15:51.256Z,46.70
2018-05-03T04:16:51.729Z,46.97
2018-05-03T04:17:52.200Z,47.23
2018-05-03T04:18:52.672Z,47.51
2018-05-03T04:19:53.143Z,47.84
2018-05-03T04:20:53.616Z,48.20
2018-05-03T04:21:54.087Z,48.54
2018-05-03T04:22:54.559Z,48.85
2018-05-03T04:23:55.032Z,49.12
2018-05-03T04:24:55.501Z,49.38
2018-05-03T04:25:56.312Z,49.60
2018-05-03T04:26:56.443Z,49.78
2018-05-03T04:27:56.914Z,49.90
2018-05-03T04:28:57.382Z,49.99
2018-05-03T04:29:57.852Z,50.09
2018-05-03T04:30:58.324Z,50.09
2018-05-03T04:31:58.792Z,50.07
2018-05-03T04:32:59.263Z,50.03
2018-05-03T04:33:59.732Z,49.97
2018-05-03T04:35:00.203Z,49.89
2018-05-03T04:36:00.674Z,49.81
2018-05-03T04:37:01.181Z,49.68
2018-05-03T04:38:01.613Z,49.57
2018-05-03T04:39:02.084Z,49.43
2018-05-03T04:40:02.551Z,49.33
2018-05-03T04:41:03.028Z,49.22
2018-05-03T04:42:03.494Z,49.10
2018-05-03T04:43:03.963Z,48.96
2018-05-03T04:44:04.431Z,48.85
2018-05-03T04:45:04.902Z,48.79
2018-05-03T04:46:05.423Z,48.69
2018-05-03T04:47:05.842Z,48.55
2018-05-03T04:48:06.315Z,48.41
2018-05-03T04:49:06.781Z,48.31
2018-05-03T04:50:07.255Z,48.14
2018-05-03T04:51:07.774Z,48.09
2018-05-03T04:52:08.193Z,47.95
2018-05-03T04:53:08.665Z,47.85
2018-05-03T04:54:09.155Z,47.77
2018-05-03T04:55:09.606Z,47.66
2018-05-03T04:56:10.080Z,47.53
2018-05-03T04:57:10.548Z,47.44
2018-05-03T04:58:11.020Z,47.35
2018-05-03T04:59:11.491Z,47.26
2018-05-03T05:00:11.962Z,47.16
2018-05-03T05:01:12.433Z,47.10
2018-05-03T05:02:13.246Z,47.02
2018-05-03T05:03:13.376Z,46.94
2018-05-03T05:04:14.187Z,46.88
2018-05-03T05:05:14.319Z,46.81
2018-05-03T05:06:14.793Z,46.73
2018-05-03T05:07:15.268Z,46.66
2018-05-03T05:08:15.735Z,46.57
2018-05-03T05:09:16.209Z,46.49
2018-05-03T05:10:16.680Z,46.41
2018-05-03T05:11:17.204Z,46.33
2018-05-03T05:12:17.624Z,46.32
2018-05-03T05:13:18.096Z,46.28
2018-05-03T05:14:18.569Z,46.21
2018-05-03T05:15:19.042Z,46.18
2018-05-03T05:16:19.564Z,46.13
2018-05-03T05:17:19.987Z,46.07
2018-05-03T05:18:20.463Z,46.02
2018-05-03T05:19:20.935Z,46.01
2018-05-03T05:20:21.406Z,46.00
2018-05-03T05:21:21.877Z,45.99
2018-05-03T05:22:22.352Z,45.95
2018-05-03T05:24:23.297Z,45.87
2018-05-03T05:25:23.771Z,45.81
2018-05-03T05:26:24.297Z,45.76
2018-05-03T05:27:24.719Z,45.71
2018-05-03T05:28:25.189Z,45.66
2018-05-03T05:29:25.663Z,45.62
2018-05-03T05:30:26.138Z,45.58
2018-05-03T05:31:26.611Z,45.58
2018-05-03T05:32:27.086Z,45.58
2018-05-03T05:33:27.559Z,45.54
2018-05-03T05:34:28.033Z,45.53
2018-05-03T05:35:28.508Z,45.52
2018-05-03T05:36:29.029Z,45.51
2018-05-03T05:37:29.453Z,45.45
2018-05-03T05:38:29.995Z,45.42
2018-05-03T05:39:30.404Z,45.38
2018-05-03T05:40:30.873Z,45.35
2018-05-03T05:41:31.352Z,45.32
2018-05-03T05:42:32.164Z,45.32
2018-05-03T05:43:32.299Z,45.33
2018-05-03T05:44:32.771Z,45.29
2018-05-03T05:45:33.246Z,45.22
2018-05-03T05:46:33.720Z,45.21
2018-05-03T05:47:34.193Z,45.25
2018-05-03T05:48:34.668Z,45.33
2018-05-03T05:49:35.143Z,45.46
2018-05-03T05:50:35.618Z,45.59
2018-05-03T05:51:36.090Z,45.75
2018-05-03T05:52:36.567Z,45.91
2018-05-03T05:53:37.037Z,46.09
2018-05-03T05:54:37.511Z,46.30
2018-05-03T05:55:37.985Z,46.53
2018-05-03T05:56:38.590Z,46.76
2018-05-03T05:57:38.933Z,46.97
2018-05-03T05:58:39.411Z,47.28
2018-05-03T05:59:39.880Z,47.56
2018-05-03T06:00:40.350Z,47.83
2018-05-03T06:01:40.822Z,48.10
2018-05-03T06:02:41.295Z,48.40
2018-05-03T06:03:41.768Z,48.73
2018-05-03T06:04:42.238Z,49.06
2018-05-03T06:05:42.709Z,49.37
2018-05-03T06:06:43.183Z,49.66
2018-05-03T06:07:43.653Z,49.92
2018-05-03T06:08:44.127Z,50.14
2018-05-03T06:09:44.595Z,50.33
2018-05-03T06:10:45.065Z,50.51
2018-05-03T06:11:45.536Z,50.64
2018-05-03T06:12:46.006Z,50.77
2018-05-03T06:13:46.477Z,50.82
2018-05-03T06:14:46.946Z,50.88
2018-05-03T06:15:47.417Z,50.83
2018-05-03T06:16:47.887Z,50.80
2018-05-03T06:17:48.357Z,50.72
2018-05-03T06:18:48.829Z,50.64
2018-05-03T06:19:49.297Z,50.54
2018-05-03T06:20:49.768Z,50.43
2018-05-03T06:21:50.238Z,50.30
2018-05-03T06:22:50.707Z,50.20
2018-05-03T06:23:51.186Z,50.07
2018-05-03T06:24:51.648Z,49.94
2018-05-03T06:25:52.182Z,49.81
2018-05-03T06:26:52.640Z,49.69
2018-05-03T06:27:53.134Z,49.53
2018-05-03T06:28:53.528Z,49.43
2018-05-03T06:29:54.000Z,49.36
2018-05-03T06:30:54.469Z,49.26
2018-05-03T06:31:54.991Z,49.14
2018-05-03T06:32:55.419Z,49.05
2018-05-03T06:33:55.884Z,48.98
2018-05-03T06:34:56.352Z,48.89
2018-05-03T06:35:56.826Z,48.80
2018-05-03T06:36:57.297Z,48.74
2018-05-03T06:37:57.767Z,48.66
2018-05-03T06:38:58.299Z,48.55
2018-05-03T06:39:58.713Z,48.47
2018-05-03T06:40:59.180Z,48.37
2018-05-03T06:41:59.651Z,48.25
2018-05-03T06:43:00.125Z,48.14
2018-05-03T06:44:00.595Z,48.05
2018-05-03T06:45:01.071Z,47.89
2018-05-03T06:46:01.541Z,47.79
2018-05-03T06:47:02.013Z,47.73
2018-05-03T06:48:02.483Z,47.71
2018-05-03T06:49:02.954Z,47.66
2018-05-03T06:50:03.426Z,47.57
2018-05-03T06:51:03.902Z,47.50
2018-05-03T06:52:07.015Z,47.40
2018-05-03T06:53:04.847Z,47.30
2018-05-03T06:54:05.324Z,47.22
2018-05-03T06:55:05.794Z,47.16
2018-05-03T06:56:06.267Z,47.10
2018-05-03T06:57:06.739Z,47.06
2018-05-03T06:58:07.249Z,46.99
2018-05-03T06:59:07.686Z,46.96
2018-05-03T07:00:08.502Z,46.90
2018-05-03T07:01:08.632Z,46.86
2018-05-03T07:02:09.106Z,46.82
2018-05-03T07:03:09.582Z,46.80
2018-05-03T07:04:10.124Z,46.80
2018-05-03T07:05:10.529Z,46.79
2018-05-03T07:06:11.003Z,46.76
2018-05-03T07:07:11.475Z,46.68
2018-05-03T07:08:11.952Z,46.54
2018-05-03T07:09:12.423Z,46.45
2018-05-03T07:10:12.901Z,46.34
2018-05-03T07:11:13.373Z,46.24
2018-05-03T07:12:13.847Z,46.19
2018-05-03T07:13:14.327Z,46.13
2018-05-03T07:14:14.796Z,46.11
2018-05-03T07:15:15.271Z,46.08
2018-05-03T07:16:15.777Z,46.07
2018-05-03T07:17:16.224Z,46.10
2018-05-03T07:18:16.732Z,46.16
2018-05-03T07:19:17.173Z,46.31
2018-05-03T07:20:17.647Z,46.48
2018-05-03T07:21:18.119Z,46.67
2018-05-03T07:22:18.596Z,46.83
2018-05-03T07:23:19.118Z,47.07
2018-05-03T07:24:19.546Z,47.34
2018-05-03T07:25:20.053Z,47.57
2018-05-03T07:26:20.489Z,47.80
2018-05-03T07:27:20.965Z,48.04
2018-05-03T07:28:21.489Z,48.26
2018-05-03T07:29:21.931Z,48.46
2018-05-03T07:30:22.391Z,48.64
2018-05-03T07:31:22.859Z,48.83
2018-05-03T07:32:23.332Z,49.05
2018-05-03T07:33:23.807Z,49.25
2018-05-03T07:34:24.277Z,49.43
2018-05-03T07:35:24.749Z,49.61
2018-05-03T07:36:25.225Z,49.87
2018-05-03T07:37:25.694Z,50.14
2018-05-03T07:38:26.166Z,50.40
2018-05-03T07:39:26.638Z,50.65
2018-05-03T07:40:27.110Z,50.83
2018-05-03T07:41:27.581Z,51.05
2018-05-03T07:42:28.055Z,51.23
2018-05-03T07:43:28.915Z,51.37
2018-05-03T07:44:28.997Z,51.44
2018-05-03T07:45:29.470Z,51.48
2018-05-03T07:46:29.938Z,51.43
2018-05-03T07:47:30.411Z,51.30
2018-05-03T07:48:30.980Z,51.28
2018-05-03T07:49:31.357Z,51.26
2018-05-03T07:50:31.824Z,51.13
2018-05-03T07:51:32.295Z,51.00
2018-05-03T07:52:32.953Z,50.75
2018-05-03T07:53:33.238Z,50.58
2018-05-03T07:54:33.709Z,50.39
2018-05-03T07:55:34.185Z,50.29
2018-05-03T07:56:34.689Z,50.16
2018-05-03T07:57:35.124Z,50.00
2018-05-03T07:58:35.647Z,49.87
2018-05-03T07:59:36.068Z,49.76
2018-05-03T08:00:36.540Z,49.68
2018-05-03T08:01:37.012Z,49.48
2018-05-03T08:02:37.485Z,49.23
2018-05-03T08:03:38.009Z,49.03
2018-05-03T08:04:38.432Z,48.85
2018-05-03T08:05:38.904Z,48.77
2018-05-03T08:06:39.376Z,48.70
2018-05-03T08:07:39.849Z,48.54
2018-05-03T08:08:40.322Z,48.34
2018-05-03T08:09:40.797Z,48.17
2018-05-03T08:10:41.268Z,48.01
2018-05-03T08:11:41.742Z,47.81
2018-05-03T08:12:42.248Z,47.59
2018-05-03T08:13:42.692Z,47.37
2018-05-03T08:14:43.171Z,47.16
2018-05-03T08:15:43.640Z,46.94
2018-05-03T08:16:44.113Z,46.75
2018-05-03T08:17:44.588Z,46.54
2018-05-03T08:18:45.215Z,46.31
2018-05-03T08:19:45.537Z,46.10
2018-05-03T08:20:46.016Z,45.99
2018-05-03T08:21:46.486Z,45.89
2018-05-03T08:22:46.961Z,45.80
2018-05-03T08:23:47.488Z,45.80
2018-05-03T08:24:47.912Z,45.81
2018-05-03T08:25:48.388Z,45.86
2018-05-03T08:26:48.866Z,45.91
2018-05-03T08:27:49.340Z,46.02
2018-05-03T08:28:49.815Z,46.17
2018-05-03T08:29:50.289Z,46.33
2018-05-03T08:30:50.765Z,46.49
2018-05-03T08:31:51.273Z,46.63
2018-05-03T08:32:51.717Z,46.79
2018-05-03T08:33:52.191Z,46.99
2018-05-03T08:34:52.666Z,47.19
2018-05-03T08:35:53.139Z,47.42
2018-05-03T08:36:53.616Z,47.60
2018-05-03T08:37:54.089Z,47.85
2018-05-03T08:38:54.564Z,48.02
2018-05-03T08:39:55.044Z,48.20
2018-05-03T08:40:55.513Z,48.38
2018-05-03T08:41:55.989Z,48.57
2018-05-03T08:42:56.462Z,48.71
2018-05-03T08:43:56.935Z,48.87
2018-05-03T08:44:57.409Z,49.08
2018-05-03T08:45:57.881Z,49.27
2018-05-03T08:46:58.356Z,49.37
2018-05-03T08:47:58.828Z,49.55
2018-05-03T08:48:59.351Z,49.78
2018-05-03T08:49:59.782Z,49.99
2018-05-03T08:51:00.275Z,50.16
2018-05-03T08:52:00.721Z,50.33
2018-05-03T08:53:01.192Z,50.65
2018-05-03T08:54:01.714Z,50.91
2018-05-03T08:55:02.137Z,51.00
2018-05-03T08:56:02.607Z,51.19
2018-05-03T08:57:03.080Z,51.32
2018-05-03T08:58:03.550Z,51.37
2018-05-03T08:59:04.023Z,51.36
2018-05-03T09:00:04.496Z,51.30
2018-05-03T09:01:04.970Z,51.21
2018-05-03T09:02:05.437Z,51.14
2018-05-03T09:03:05.910Z,51.00
2018-05-03T09:04:06.383Z,50.82
2018-05-03T09:05:06.856Z,50.63
2018-05-03T09:06:07.327Z,50.42
2018-05-03T09:07:07.798Z,50.22
2018-05-03T09:08:08.270Z,50.01
2018-05-03T09:09:08.797Z,49.75
2018-05-03T09:10:09.221Z,49.53
2018-05-03T09:11:09.688Z,49.34
2018-05-03T09:12:10.162Z,49.11
2018-05-03T09:13:10.634Z,48.92
2018-05-03T09:14:11.262Z,48.73
2018-05-03T09:15:11.579Z,48.49
2018-05-03T09:16:12.054Z,48.25
2018-05-03T09:17:12.527Z,48.02
2018-05-03T09:18:13.004Z,47.82
2018-05-03T09:19:13.477Z,47.59
2018-05-03T09:20:13.951Z,47.40
2018-05-03T09:21:14.424Z,47.18
2018-05-03T09:22:14.899Z,46.99
2018-05-03T09:23:15.373Z,46.82
2018-05-03T09:24:15.900Z,46.64
2018-05-03T09:25:16.325Z,46.47
2018-05-03T09:26:16.800Z,46.34
2018-05-03T09:27:17.477Z,46.21
2018-05-03T09:28:17.754Z,46.12
2018-05-03T09:29:18.379Z,46.09
2018-05-03T09:30:18.705Z,46.05
2018-05-03T09:31:19.178Z,46.03
2018-05-03T09:32:19.655Z,46.06
2018-05-03T09:33:20.130Z,46.15
2018-05-03T09:34:20.606Z,46.28
2018-05-03T09:35:21.083Z,46.38
2018-05-03T09:36:21.559Z,46.50
2018-05-03T09:37:22.035Z,46.62
2018-05-03T09:38:22.511Z,46.76
2018-05-03T09:39:22.986Z,46.85
2018-05-03T09:40:23.546Z,47.08
2018-05-03T09:41:23.938Z,47.41
2018-05-03T09:42:24.417Z,47.71
2018-05-03T09:43:24.889Z,47.94
2018-05-03T09:44:25.395Z,48.15
2018-05-03T09:45:25.842Z,48.32
2018-05-03T09:46:26.314Z,48.49
2018-05-03T09:47:26.791Z,48.54
2018-05-03T09:48:27.266Z,48.73
2018-05-03T09:49:27.790Z,48.84
2018-05-03T09:50:28.215Z,48.96
2018-05-03T09:51:28.688Z,49.12
2018-05-03T09:52:29.220Z,49.21
2018-05-03T09:53:29.638Z,49.28
2018-05-03T09:54:30.162Z,49.36
2018-05-03T09:55:30.586Z,49.51
2018-05-03T09:56:31.060Z,49.70
2018-05-03T09:57:31.535Z,49.84
2018-05-03T09:58:32.007Z,49.93
2018-05-03T09:59:32.533Z,50.02
2018-05-03T10:00:32.958Z,50.09
2018-05-03T10:01:33.426Z,50.18
2018-05-03T10:02:33.898Z,50.28
2018-05-03T10:03:34.372Z,50.40
2018-05-03T10:04:34.846Z,50.48
2018-05-03T10:05:35.320Z,50.61
2018-05-03T10:06:35.792Z,50.78
2018-05-03T10:07:36.264Z,51.06
2018-05-03T10:08:36.735Z,51.31
2018-05-03T10:09:37.208Z,51.43
2018-05-03T10:10:37.683Z,51.49
2018-05-03T10:11:38.151Z,51.44
2018-05-03T10:12:38.623Z,51.54
2018-05-03T10:13:39.096Z,51.63
2018-05-03T10:14:39.626Z,51.49
2018-05-03T10:15:40.046Z,51.34
2018-05-03T10:16:40.513Z,51.34
2018-05-03T10:17:40.987Z,51.21
2018-05-03T10:18:41.457Z,51.03
2018-05-03T10:19:41.932Z,50.85
2018-05-03T10:20:42.403Z,50.80
2018-05-03T10:21:42.920Z,50.73
2018-05-03T10:22:43.351Z,50.55
2018-05-03T10:23:43.824Z,50.38
2018-05-03T10:24:44.450Z,50.33
2018-05-03T10:26:45.242Z,49.97
2018-05-03T10:27:45.716Z,49.77
2018-05-03T10:28:46.189Z,49.71
2018-05-03T10:29:46.715Z,49.62
2018-05-03T10:30:47.137Z,49.30
2018-05-03T10:31:47.612Z,48.85
2018-05-03T10:32:48.088Z,48.61
2018-05-03T10:33:48.562Z,48.52
2018-05-03T10:34:49.036Z,48.20
2018-05-03T10:35:49.557Z,48.07
2018-05-03T10:36:50.029Z,47.84
2018-05-03T10:37:50.465Z,47.57
2018-05-03T10:38:50.940Z,47.46
2018-05-03T10:39:51.466Z,47.49
2018-05-03T10:40:51.891Z,47.36
2018-05-03T10:41:52.406Z,47.26
2018-05-03T10:42:52.841Z,47.29
2018-05-03T10:43:53.319Z,47.44
2018-05-03T10:44:53.794Z,47.67
2018-05-03T10:45:54.272Z,47.74
2018-05-03T10:46:54.746Z,47.79
2018-05-03T10:47:55.224Z,47.91
2018-05-03T10:48:55.709Z,47.99
2018-05-03T10:49:56.227Z,47.96
2018-05-03T10:50:56.654Z,47.87
2018-05-03T10:51:57.126Z,48.05
2018-05-03T10:52:57.602Z,48.22
2018-05-03T10:53:58.080Z,48.27
2018-05-03T10:54:58.707Z,48.27
2018-05-03T10:55:59.029Z,48.37
2018-05-03T10:56:59.507Z,48.46
2018-05-03T10:57:59.981Z,48.55
2018-05-03T10:59:00.455Z,48.71
2018-05-03T11:00:00.932Z,48.72
2018-05-03T11:01:01.405Z,48.82
2018-05-03T11:02:01.888Z,48.95
2018-05-03T11:03:02.356Z,49.15
2018-05-03T11:04:02.833Z,49.36
2018-05-03T11:05:03.304Z,49.39
2018-05-03T11:06:03.776Z,49.40
2018-05-03T11:07:04.251Z,49.53
2018-05-03T11:08:04.725Z,49.60
2018-05-03T11:09:05.202Z,49.73
2018-05-03T11:10:05.828Z,49.92
2018-05-03T11:11:06.190Z,50.01
2018-05-03T11:12:06.620Z,50.15
2018-05-03T11:13:07.093Z,50.33
2018-05-03T11:14:07.567Z,50.43
2018-05-03T11:15:08.040Z,50.48
2018-05-03T11:16:08.511Z,50.72
2018-05-03T11:17:08.984Z,50.93
2018-05-03T11:18:09.460Z,51.14
2018-05-03T11:19:09.936Z,51.25
2018-05-03T11:20:10.455Z,51.44
2018-05-03T11:21:10.876Z,51.66
2018-05-03T11:22:11.348Z,51.74
2018-05-03T11:23:11.820Z,51.72
2018-05-03T11:24:12.292Z,51.84
2018-05-03T11:25:12.813Z,51.97
2018-05-03T11:26:13.238Z,51.91
2018-05-03T11:27:13.710Z,51.98
2018-05-03T11:28:14.181Z,52.00
2018-05-03T11:29:14.654Z,51.86
2018-05-03T11:30:15.125Z,51.72
2018-05-03T11:31:15.598Z,51.64
2018-05-03T11:32:16.069Z,51.43
2018-05-03T11:33:16.543Z,51.12
2018-05-03T11:34:17.014Z,50.87
2018-05-03T11:35:17.640Z,50.68
2018-05-03T11:36:17.960Z,50.40
2018-05-03T11:37:18.437Z,50.15
2018-05-03T11:38:18.909Z,49.92
2018-05-03T11:39:19.381Z,49.70
2018-05-03T11:40:19.905Z,49.47
2018-05-03T11:41:20.326Z,49.17
2018-05-03T11:42:20.803Z,48.84
2018-05-03T11:43:21.277Z,48.50
2018-05-03T11:44:21.754Z,48.19
2018-05-03T11:45:22.277Z,47.84
2018-05-03T11:46:22.702Z,47.53
2018-05-03T11:47:23.176Z,47.31
2018-05-03T11:48:23.650Z,47.10
2018-05-03T11:49:24.128Z,47.04
2018-05-03T11:50:24.608Z,47.02
2018-05-03T11:51:25.078Z,46.93
2018-05-03T11:52:25.555Z,46.82
2018-05-03T11:53:26.032Z,46.72
2018-05-03T11:54:26.510Z,46.83
2018-05-03T11:55:27.135Z,46.86
2018-05-03T11:56:27.460Z,46.87
2018-05-03T11:57:27.937Z,46.93
2018-05-03T11:58:28.416Z,47.03
2018-05-03T11:59:28.977Z,47.16
2018-05-03T12:00:29.416Z,47.28
2018-05-03T12:01:29.843Z,47.40
2018-05-03T12:02:30.407Z,47.67
2018-05-03T12:03:30.796Z,47.84
2018-05-03T12:04:31.271Z,47.94
2018-05-03T12:05:31.748Z,48.10
2018-05-03T12:06:32.224Z,48.25
2018-05-03T12:07:32.699Z,48.38
2018-05-03T12:08:33.276Z,48.50
2018-05-03T12:09:33.649Z,48.63
2018-05-03T12:10:34.126Z,48.74
2018-05-03T12:11:34.599Z,48.86
2018-05-03T12:12:35.082Z,48.97
2018-05-03T12:13:35.552Z,49.12
2018-05-03T12:14:36.027Z,49.23
2018-05-03T12:15:36.502Z,49.33
2018-05-03T12:16:36.975Z,49.40
2018-05-03T12:17:37.449Z,49.46
2018-05-03T12:18:37.925Z,49.58
2018-05-03T12:19:38.400Z,49.70
2018-05-03T12:20:38.880Z,49.86
2018-05-03T12:21:39.350Z,49.96
2018-05-03T12:22:39.823Z,50.06
2018-05-03T12:23:40.295Z,50.15
2018-05-03T12:24:40.769Z,50.18
2018-05-03T12:25:41.245Z,50.24
2018-05-03T12:26:41.717Z,50.37
2018-05-03T12:27:42.189Z,50.51
2018-05-03T12:28:42.661Z,50.58
2018-05-03T12:29:43.139Z,50.56
2018-05-03T12:30:43.762Z,50.61
2018-05-03T12:31:44.080Z,50.66
2018-05-03T12:32:44.557Z,50.74
2018-05-03T12:33:45.028Z,50.83
2018-05-03T12:34:45.517Z,50.96
2018-05-03T12:35:45.978Z,51.08
2018-05-03T12:36:46.445Z,51.22
2018-05-03T12:37:46.921Z,51.36
2018-05-03T12:38:47.390Z,51.42
2018-05-03T12:39:47.865Z,51.61
2018-05-03T12:40:48.335Z,51.77
2018-05-03T12:41:48.806Z,51.75
2018-05-03T12:42:49.278Z,51.70
2018-05-03T12:43:49.752Z,51.63
2018-05-03T12:44:50.223Z,51.52
2018-05-03T12:45:50.695Z,51.45
2018-05-03T12:46:51.168Z,51.39
2018-05-03T12:47:51.640Z,51.20
2018-05-03T12:48:52.114Z,50.83
2018-05-03T12:49:52.588Z,50.63
2018-05-03T12:51:04.949Z,50.46
2018-05-03T12:51:53.547Z,50.33
2018-05-03T12:52:54.006Z,50.24
2018-05-03T12:53:54.479Z,50.04
2018-05-03T12:54:54.950Z,49.75
2018-05-03T12:55:55.426Z,49.44
2018-05-03T12:56:55.900Z,49.09
2018-05-03T12:57:56.376Z,48.89
2018-05-03T12:58:56.849Z,48.59
2018-05-03T12:59:57.324Z,48.29
2018-05-03T13:00:57.798Z,47.93
2018-05-03T13:01:58.275Z,47.64
2018-05-03T13:02:58.750Z,47.35